Time;durP1;ratioP1;P1;durP2;ratioP2;P2;SDS_P1;SDS_P2;PMS_P1;PMS_P2;Temp;Humidity;BMP_temperature;BMP_pressure;BME280_temperature;BME280_humidity;BME280_pressure;Samples;Min_cycle;Max_cycle;Signal;HPM_P1;HPM_P2
2023/07/18 00:01:46;;;;;;;1.85;0.20;;;13.10;99.90;;;;;;5002819;28;20363;-66
2023/07/18 00:04:12;;;;;;;0.13;0.00;;;13.10;99.90;;;;;;5003915;28;20034;-66
2023/07/18 00:06:40;;;;;;;0.25;0.05;;;13.10;99.90;;;;;;4998707;28;20030;-65
2023/07/18 00:09:06;;;;;;;1.40;0.20;;;13.00;99.90;;;;;;5003752;28;20128;-66
2023/07/18 00:11:31;;;;;;;0.10;0.00;;;13.10;99.90;;;;;;4998844;28;20054;-66
2023/07/18 00:13:57;;;;;;;0.13;0.10;;;13.10;99.90;;;;;;4997553;28;20144;-65
2023/07/18 00:16:23;;;;;;;0.00;0.00;;;13.00;99.90;;;;;;4994213;28;20482;-66
2023/07/18 00:18:50;;;;;;;0.82;0.10;;;13.00;99.90;;;;;;5001382;28;20034;-65
2023/07/18 00:21:16;;;;;;;0.52;0.30;;;13.00;99.90;;;;;;5000663;28;20042;-66
2023/07/18 00:23:42;;;;;;;0.20;0.10;;;13.00;99.90;;;;;;4999502;28;20085;-65
2023/07/18 00:26:08;;;;;;;0.20;0.08;;;13.00;99.90;;;;;;4996968;28;20073;-65
2023/07/18 00:28:34;;;;;;;0.63;0.20;;;13.00;99.90;;;;;;5004064;28;20517;-66
2023/07/18 00:31:02;;;;;;;0.40;0.10;;;12.90;99.90;;;;;;5003813;28;20073;-65
2023/07/18 00:33:28;;;;;;;0.73;0.32;;;12.90;99.90;;;;;;4981297;28;20042;-66
2023/07/18 00:35:54;;;;;;;0.00;0.00;;;12.90;99.90;;;;;;5005989;28;20046;-66
2023/07/18 00:38:20;;;;;;;0.25;0.25;;;12.90;99.90;;;;;;5004295;28;20533;-66
2023/07/18 00:40:49;;;;;;;0.10;0.00;;;12.90;99.90;;;;;;5000746;28;20453;-66
2023/07/18 00:43:15;;;;;;;0.52;0.10;;;12.90;99.90;;;;;;4998047;28;20046;-66
2023/07/18 00:45:46;;;;;;;2.72;0.10;;;12.80;99.90;;;;;;5004640;28;20057;-65
2023/07/18 00:48:13;;;;;;;0.00;0.00;;;12.80;99.90;;;;;;5003066;28;20038;-66
2023/07/18 00:50:39;;;;;;;0.25;0.00;;;12.90;99.90;;;;;;4998472;28;20046;-65
2023/07/18 00:53:05;;;;;;;0.73;0.30;;;12.80;99.90;;;;;;4996962;28;20129;-65
2023/07/18 00:55:31;;;;;;;0.00;0.00;;;12.80;99.90;;;;;;4999671;28;20042;-65
2023/07/18 00:57:59;;;;;;;0.10;0.10;;;12.80;99.90;;;;;;4999745;28;20030;-66
2023/07/18 01:00:25;;;;;;;0.13;0.10;;;12.80;99.90;;;;;;4998834;28;20046;-66
2023/07/18 01:02:52;;;;;;;0.00;0.00;;;12.80;99.90;;;;;;4996488;28;20057;-66
2023/07/18 01:05:19;;;;;;;0.10;0.00;;;12.80;99.90;;;;;;4999822;28;20042;-65
2023/07/18 01:07:46;;;;;;;0.63;0.10;;;12.80;99.90;;;;;;5001134;28;20057;-66
2023/07/18 01:10:23;;;;;;;0.38;0.20;;;12.80;99.90;;;;;;5014290;28;20061;-66
2023/07/18 01:12:54;;;;;;;0.00;0.00;;;12.80;99.90;;;;;;4999926;28;20096;-66
2023/07/18 01:15:20;;;;;;;0.10;0.08;;;12.70;99.90;;;;;;5002331;28;20042;-66
2023/07/18 01:17:50;;;;;;;0.22;0.10;;;12.70;99.90;;;;;;5002480;28;20117;-66
2023/07/18 01:20:23;;;;;;;0.43;0.20;;;12.70;99.90;;;;;;5002386;28;20054;-65
2023/07/18 01:22:53;;;;;;;0.13;0.10;;;12.70;99.90;;;;;;4993949;28;20390;-66
2023/07/18 01:25:19;;;;;;;0.20;0.10;;;12.60;99.90;;;;;;5002771;28;20033;-66
2023/07/18 01:27:50;;;;;;;0.10;0.00;;;12.70;99.90;;;;;;5002955;28;20039;-66
2023/07/18 01:30:19;;;;;;;0.20;0.10;;;12.70;99.90;;;;;;5003562;28;20088;-66
2023/07/18 01:32:48;;;;;;;0.10;0.10;;;12.70;99.90;;;;;;4996997;28;20046;-66
2023/07/18 01:35:15;;;;;;;0.00;0.00;;;12.60;99.90;;;;;;5005402;28;20033;-65
2023/07/18 01:37:44;;;;;;;0.20;0.00;;;12.60;99.90;;;;;;5003688;28;20089;-66
2023/07/18 01:40:14;;;;;;;0.00;0.00;;;12.60;99.90;;;;;;5000991;28;20042;-66
2023/07/18 01:42:41;;;;;;;0.32;0.03;;;12.60;99.90;;;;;;4995043;28;20086;-66
2023/07/18 01:45:07;;;;;;;0.17;0.08;;;12.60;99.90;;;;;;5006325;28;20037;-65
2023/07/18 01:47:33;;;;;;;0.70;0.20;;;12.60;99.90;;;;;;5001488;28;20052;-66
2023/07/18 01:50:00;;;;;;;0.28;0.10;;;12.60;99.90;;;;;;5003496;28;20470;-66
2023/07/18 01:52:27;;;;;;;0.22;0.10;;;12.60;99.90;;;;;;4997590;28;20046;-66
2023/07/18 01:54:54;;;;;;;0.75;0.22;;;12.60;99.90;;;;;;5004821;28;20046;-66
2023/07/18 01:57:20;;;;;;;0.63;0.25;;;12.60;99.90;;;;;;5006103;28;20033;-66
2023/07/18 01:59:45;;;;;;;0.70;0.30;;;12.60;99.90;;;;;;5003098;28;20091;-66
2023/07/18 02:02:14;;;;;;;0.40;0.20;;;12.70;99.90;;;;;;5002592;28;20048;-66
2023/07/18 02:04:40;;;;;;;1.80;0.38;;;12.60;99.90;;;;;;5003299;28;20035;-66
2023/07/18 02:07:05;;;;;;;0.98;0.28;;;12.60;99.90;;;;;;5004917;28;20552;-66
2023/07/18 02:09:31;;;;;;;2.17;0.38;;;12.60;99.90;;;;;;4995669;28;20057;-66
2023/07/18 02:11:57;;;;;;;0.98;0.40;;;12.60;99.90;;;;;;4999066;28;20045;-66
2023/07/18 02:14:32;;;;;;;0.60;0.20;;;12.60;99.90;;;;;;5002316;28;20050;-66
2023/07/18 02:16:58;;;;;;;0.10;0.10;;;12.60;99.90;;;;;;5002367;28;20042;-65
2023/07/18 02:19:24;;;;;;;0.13;0.13;;;12.60;99.90;;;;;;5002380;28;20110;-66
2023/07/18 02:21:49;;;;;;;0.63;0.20;;;12.50;99.90;;;;;;5001853;28;20042;-65
2023/07/18 02:24:15;;;;;;;0.60;0.20;;;12.50;99.90;;;;;;5006667;28;20057;-66
2023/07/18 02:26:41;;;;;;;0.50;0.20;;;12.50;99.90;;;;;;4999332;28;20049;-65
2023/07/18 02:29:06;;;;;;;1.17;0.30;;;12.50;99.90;;;;;;5000102;28;20041;-66
2023/07/18 02:31:33;;;;;;;0.52;0.10;;;12.50;99.90;;;;;;5004588;28;20060;-66
2023/07/18 02:33:58;;;;;;;0.10;0.10;;;12.50;99.90;;;;;;5007614;28;20030;-66
2023/07/18 02:36:24;;;;;;;3.40;0.10;;;12.40;99.90;;;;;;5005619;28;20041;-66
2023/07/18 02:38:50;;;;;;;0.57;0.30;;;12.40;99.90;;;;;;4998404;28;20038;-66
2023/07/18 02:41:17;;;;;;;0.15;0.15;;;12.40;99.90;;;;;;5000813;28;20049;-66
2023/07/18 02:43:43;;;;;;;1.13;0.20;;;12.30;99.90;;;;;;5002598;28;20042;-66
2023/07/18 02:46:08;;;;;;;0.22;0.17;;;12.30;99.90;;;;;;4998697;28;20038;-66
2023/07/18 02:48:34;;;;;;;1.30;0.38;;;12.40;99.90;;;;;;5004735;28;20491;-66
2023/07/18 02:51:00;;;;;;;0.20;0.20;;;12.30;99.90;;;;;;5006738;28;20042;-66
2023/07/18 02:53:26;;;;;;;0.60;0.13;;;12.30;99.90;;;;;;5006255;28;20057;-66
2023/07/18 02:55:51;;;;;;;1.58;0.20;;;12.30;99.90;;;;;;4999176;28;20482;-65
2023/07/18 02:58:17;;;;;;;0.22;0.10;;;12.30;99.90;;;;;;5002475;28;20034;-66
2023/07/18 03:00:43;;;;;;;0.45;0.25;;;12.30;99.90;;;;;;5003778;28;20054;-64
2023/07/18 03:03:08;;;;;;;0.88;0.30;;;12.30;99.90;;;;;;5003348;28;20439;-65
2023/07/18 03:05:34;;;;;;;0.43;0.10;;;12.30;99.90;;;;;;4994658;28;20048;-65
2023/07/18 03:08:00;;;;;;;0.40;0.20;;;12.30;99.90;;;;;;5004992;28;20053;-64
2023/07/18 03:10:25;;;;;;;1.60;0.30;;;12.30;99.90;;;;;;5001783;28;20112;-65
2023/07/18 03:12:51;;;;;;;0.55;0.22;;;12.20;99.90;;;;;;5005118;28;20045;-65
2023/07/18 03:15:19;;;;;;;1.10;0.40;;;12.30;99.90;;;;;;4996880;28;20050;-65
2023/07/18 03:17:45;;;;;;;0.70;0.20;;;12.20;99.90;;;;;;5003678;28;20046;-65
2023/07/18 03:20:20;;;;;;;4.03;0.30;;;12.20;99.90;;;;;;5006615;28;20057;-65
2023/07/18 03:22:46;;;;;;;;;;;12.20;99.90;;;;;;5002988;28;20181;-65
2023/07/18 03:25:12;;;;;;;2.05;0.30;;;12.20;99.90;;;;;;5005294;28;19936;-66
2023/07/18 03:27:37;;;;;;;1.05;0.40;;;12.10;99.90;;;;;;5004587;28;20046;-65
2023/07/18 03:30:06;;;;;;;0.22;0.10;;;12.10;99.90;;;;;;5008385;28;20117;-65
2023/07/18 03:32:31;;;;;;;0.10;0.10;;;12.20;99.90;;;;;;4997176;28;20497;-65
2023/07/18 03:34:57;;;;;;;0.65;0.43;;;12.10;99.90;;;;;;5000674;28;20189;-65
2023/07/18 03:37:23;;;;;;;0.47;0.20;;;12.10;99.90;;;;;;4997829;28;20038;-65
2023/07/18 03:39:48;;;;;;;2.40;0.20;;;12.20;99.90;;;;;;5005957;28;20034;-65
2023/07/18 03:42:14;;;;;;;0.20;0.10;;;12.20;99.90;;;;;;5004288;28;20338;-65
2023/07/18 03:44:41;;;;;;;0.25;0.10;;;12.20;99.90;;;;;;5003957;28;20042;-65
2023/07/18 03:47:07;;;;;;;1.13;0.20;;;12.20;99.90;;;;;;4997468;28;20042;-65
2023/07/18 03:49:33;;;;;;;0.57;0.28;;;12.20;99.90;;;;;;5003269;28;20049;-65
2023/07/18 03:51:58;;;;;;;0.95;0.30;;;12.20;99.90;;;;;;5005852;28;20374;-64
2023/07/18 03:54:24;;;;;;;0.32;0.20;;;12.20;99.90;;;;;;5007697;28;20050;-65
2023/07/18 03:56:50;;;;;;;0.57;0.20;;;12.20;99.90;;;;;;4997855;28;20037;-65
2023/07/18 03:59:16;;;;;;;0.40;0.30;;;12.20;99.90;;;;;;5003988;28;20062;-65
2023/07/18 04:01:42;;;;;;;1.02;0.30;;;12.20;99.90;;;;;;5004561;28;20498;-65
2023/07/18 04:04:07;;;;;;;0.32;0.20;;;12.20;99.90;;;;;;4997078;28;20084;-65
2023/07/18 04:06:33;;;;;;;0.25;0.13;;;12.30;99.90;;;;;;5000991;28;20030;-65
2023/07/18 04:09:00;;;;;;;1.95;0.40;;;12.20;99.90;;;;;;5002211;28;20049;-65
2023/07/18 04:11:26;;;;;;;2.30;0.20;;;12.30;99.90;;;;;;5003778;28;20069;-66
2023/07/18 04:13:51;;;;;;;0.75;0.30;;;12.30;99.90;;;;;;4996729;28;20034;-65
2023/07/18 04:16:17;;;;;;;0.80;0.20;;;12.30;99.90;;;;;;5000521;28;20049;-66
2023/07/18 04:18:43;;;;;;;0.20;0.10;;;12.30;99.90;;;;;;5002689;28;20052;-65
2023/07/18 04:21:09;;;;;;;0.50;0.28;;;12.30;99.90;;;;;;4999480;28;20402;-65
2023/07/18 04:23:34;;;;;;;0.38;0.20;;;12.40;99.90;;;;;;5003609;28;20083;-65
2023/07/18 04:26:02;;;;;;;1.45;0.43;;;12.40;99.90;;;;;;5000579;28;20475;-65
2023/07/18 04:28:33;;;;;;;1.67;0.40;;;12.40;99.90;;;;;;5002434;28;20156;-65
2023/07/18 04:30:59;;;;;;;0.47;0.25;;;12.50;99.90;;;;;;4999137;28;20084;-65
2023/07/18 04:33:25;;;;;;;0.22;0.20;;;12.50;99.90;;;;;;4994597;28;20045;-65
2023/07/18 04:35:51;;;;;;;0.20;0.10;;;12.60;99.90;;;;;;5003190;28;20037;-65
2023/07/18 04:38:17;;;;;;;0.40;0.15;;;12.60;99.90;;;;;;4999611;28;20038;-65
2023/07/18 04:40:43;;;;;;;1.88;0.22;;;12.70;99.90;;;;;;5001047;28;20492;-65
2023/07/18 04:43:09;;;;;;;1.55;0.40;;;12.70;99.90;;;;;;4997324;28;20034;-65
2023/07/18 04:45:44;;;;;;;1.88;0.63;;;12.80;99.90;;;;;;5001879;28;20119;-65
2023/07/18 04:48:18;;;;;;;0.35;0.20;;;12.80;99.90;;;;;;5001543;28;20070;-65
2023/07/18 04:50:45;;;;;;;0.15;0.08;;;12.90;99.90;;;;;;4994816;28;20572;-65
2023/07/18 04:53:11;;;;;;;0.40;0.13;;;13.00;99.90;;;;;;5004452;28;20091;-65
2023/07/18 04:55:38;;;;;;;0.82;0.50;;;13.10;99.90;;;;;;5000232;28;20046;-65
2023/07/18 04:58:06;;;;;;;0.25;0.10;;;13.10;99.90;;;;;;5002721;28;20038;-65
2023/07/18 05:00:32;;;;;;;0.13;0.10;;;13.20;99.90;;;;;;4995971;28;20108;-65
2023/07/18 05:02:58;;;;;;;0.38;0.20;;;13.20;99.90;;;;;;4999447;28;20037;-65
2023/07/18 05:05:28;;;;;;;0.30;0.10;;;13.30;99.90;;;;;;5000383;28;20026;-65
2023/07/18 05:07:55;;;;;;;0.80;0.17;;;13.40;99.90;;;;;;4998951;28;20532;-65
2023/07/18 05:10:22;;;;;;;0.30;0.20;;;13.60;99.90;;;;;;5001175;28;20056;-65
2023/07/18 05:12:51;;;;;;;1.00;0.20;;;13.60;99.90;;;;;;4996359;28;20049;-65
2023/07/18 05:15:18;;;;;;;0.40;0.10;;;13.90;99.90;;;;;;5002811;28;20053;-65
2023/07/18 05:17:43;;;;;;;3.03;0.40;;;14.30;99.90;;;;;;5008475;28;20370;-64
2023/07/18 05:20:10;;;;;;;0.20;0.20;;;14.60;99.90;;;;;;5008799;28;20057;-64
2023/07/18 05:22:41;;;;;;;0.20;0.10;;;14.70;99.90;;;;;;5010217;28;20419;-65
2023/07/18 05:25:08;;;;;;;0.65;0.28;;;14.70;99.90;;;;;;5005570;28;20026;-65
2023/07/18 05:27:34;;;;;;;1.65;0.43;;;14.80;99.90;;;;;;5007672;28;20038;-65
2023/07/18 05:30:00;;;;;;;0.40;0.20;;;14.90;99.90;;;;;;5004496;28;20045;-65
2023/07/18 05:32:26;;;;;;;0.98;0.40;;;15.00;99.90;;;;;;4998761;28;20162;-65
2023/07/18 05:34:51;;;;;;;0.20;0.10;;;14.90;99.90;;;;;;5008360;28;20100;-65
2023/07/18 05:37:17;;;;;;;0.20;0.10;;;14.90;99.90;;;;;;4999478;28;20034;-65
2023/07/18 05:39:43;;;;;;;0.35;0.10;;;14.90;99.90;;;;;;4998154;28;20129;-65
2023/07/18 05:42:09;;;;;;;0.63;0.25;;;15.00;99.90;;;;;;5005562;28;20053;-65
2023/07/18 05:44:34;;;;;;;2.10;0.10;;;15.00;99.90;;;;;;5007580;28;20066;-65
2023/07/18 05:47:00;;;;;;;0.40;0.30;;;15.00;99.90;;;;;;5010472;28;20034;-65
2023/07/18 05:49:27;;;;;;;0.55;0.35;;;15.10;99.90;;;;;;5007951;28;20034;-65
2023/07/18 05:51:53;;;;;;;2.30;0.28;;;15.20;99.90;;;;;;5007515;28;20065;-65
2023/07/18 05:54:19;;;;;;;1.30;0.10;;;15.30;99.90;;;;;;5007292;28;20687;-65
2023/07/18 05:56:46;;;;;;;0.17;0.10;;;15.40;99.90;;;;;;5004028;28;20519;-65
2023/07/18 05:59:11;;;;;;;0.60;0.20;;;15.40;99.90;;;;;;5006620;28;20049;-65
2023/07/18 06:01:37;;;;;;;0.13;0.10;;;15.50;99.90;;;;;;5006697;28;20045;-66
2023/07/18 06:04:03;;;;;;;0.63;0.10;;;15.50;99.90;;;;;;5008498;28;20041;-65
2023/07/18 06:06:31;;;;;;;0.30;0.10;;;15.60;99.90;;;;;;5007002;28;20045;-63
2023/07/18 06:08:57;;;;;;;0.80;0.40;;;15.60;99.90;;;;;;5005509;28;20050;-66
2023/07/18 06:11:22;;;;;;;0.22;0.08;;;15.60;99.90;;;;;;5003745;28;20050;-65
2023/07/18 06:13:49;;;;;;;0.88;0.15;;;15.70;99.90;;;;;;5010500;28;20037;-65
2023/07/18 06:16:15;;;;;;;0.47;0.22;;;15.70;99.90;;;;;;4997532;28;20045;-65
2023/07/18 06:18:43;;;;;;;0.65;0.13;;;15.80;99.90;;;;;;4999290;28;20034;-65
2023/07/18 06:21:09;;;;;;;0.85;0.20;;;15.80;99.90;;;;;;5004720;28;20042;-64
2023/07/18 06:23:35;;;;;;;0.30;0.20;;;15.80;99.90;;;;;;5004553;28;20045;-65
2023/07/18 06:26:00;;;;;;;1.27;0.32;;;15.80;99.90;;;;;;5001098;28;20044;-64
2023/07/18 06:28:26;;;;;;;0.20;0.20;;;16.00;99.90;;;;;;5001348;28;20382;-65
2023/07/18 06:30:55;;;;;;;0.10;0.10;;;16.00;99.90;;;;;;5004454;28;20534;-64
2023/07/18 06:33:22;;;;;;;0.20;0.10;;;16.10;99.90;;;;;;5004310;28;20054;-64
2023/07/18 06:35:55;;;;;;;0.00;0.00;;;16.10;99.90;;;;;;5001050;28;20046;-64
2023/07/18 06:38:21;;;;;;;0.38;0.08;;;16.20;99.90;;;;;;4997456;28;20074;-64
2023/07/18 06:40:48;;;;;;;2.17;0.40;;;16.20;99.90;;;;;;5002829;28;20057;-65
2023/07/18 06:43:14;;;;;;;0.32;0.20;;;16.30;99.90;;;;;;4993925;28;20477;-65
2023/07/18 06:45:42;;;;;;;0.43;0.20;;;16.30;99.90;;;;;;4997014;28;20487;-64
2023/07/18 06:48:08;;;;;;;0.20;0.10;;;16.40;99.90;;;;;;5002215;28;20069;-64
2023/07/18 06:50:35;;;;;;;0.20;0.10;;;16.50;99.90;;;;;;5004954;28;20041;-65
2023/07/18 06:53:00;;;;;;;0.10;0.10;;;16.60;99.90;;;;;;5003477;28;20034;-64
2023/07/18 06:55:26;;;;;;;1.17;0.30;;;16.70;99.90;;;;;;5001819;28;20566;-65
2023/07/18 06:57:52;;;;;;;1.30;0.20;;;16.80;99.90;;;;;;4999166;28;20042;-65
2023/07/18 07:00:19;;;;;;;0.35;0.10;;;16.90;99.90;;;;;;5001374;28;20393;-65
2023/07/18 07:02:45;;;;;;;0.47;0.10;;;17.10;99.90;;;;;;4998507;28;20483;-64
2023/07/18 07:05:11;;;;;;;1.10;0.10;;;17.20;99.90;;;;;;4995787;28;20030;-64
2023/07/18 07:07:37;;;;;;;0.25;0.17;;;17.30;99.90;;;;;;4999135;28;20042;-65
2023/07/18 07:10:03;;;;;;;0.13;0.10;;;17.40;99.90;;;;;;5006311;28;20064;-64
2023/07/18 07:12:32;;;;;;;0.25;0.10;;;17.60;99.90;;;;;;4998915;28;20153;-65
2023/07/18 07:14:57;;;;;;;0.00;0.00;;;17.70;99.90;;;;;;5002410;28;20038;-64
2023/07/18 07:17:23;;;;;;;0.17;0.10;;;17.80;99.90;;;;;;5003125;28;20558;-65
2023/07/18 07:19:49;;;;;;;0.10;0.10;;;17.80;99.90;;;;;;5008294;28;20034;-64
2023/07/18 07:22:15;;;;;;;2.65;0.60;;;17.90;99.90;;;;;;4998898;28;20107;-65
2023/07/18 07:24:41;;;;;;;0.82;0.43;;;18.10;99.90;;;;;;5001810;28;20049;-65
2023/07/18 07:27:07;;;;;;;0.25;0.10;;;18.20;99.90;;;;;;5002451;28;20046;-64
2023/07/18 07:29:33;;;;;;;0.10;0.00;;;18.40;99.90;;;;;;5001317;28;20050;-65
2023/07/18 07:31:59;;;;;;;0.70;0.20;;;18.50;99.90;;;;;;5000508;28;20052;-65
2023/07/18 07:34:24;;;;;;;1.10;0.10;;;18.60;99.90;;;;;;4998935;28;20512;-65
2023/07/18 07:36:50;;;;;;;0.10;0.10;;;18.70;99.90;;;;;;4999312;28;20470;-65
2023/07/18 07:39:17;;;;;;;1.17;0.17;;;18.80;99.90;;;;;;5002295;28;20034;-65
2023/07/18 07:41:44;;;;;;;0.52;0.32;;;18.90;99.90;;;;;;4985768;28;20046;-65
2023/07/18 07:44:10;;;;;;;0.52;0.00;;;19.00;99.90;;;;;;5001561;28;20095;-65
2023/07/18 07:46:36;;;;;;;0.32;0.03;;;19.10;99.90;;;;;;5000715;28;20038;-65
2023/07/18 07:49:01;;;;;;;0.10;0.10;;;19.30;99.90;;;;;;5001346;28;20053;-66
2023/07/18 07:51:27;;;;;;;0.32;0.00;;;19.50;99.90;;;;;;4997120;28;20052;-66
2023/07/18 07:53:54;;;;;;;1.38;0.52;;;19.70;99.90;;;;;;5000088;28;20445;-66
2023/07/18 07:56:20;;;;;;;3.30;0.20;;;19.80;99.90;;;;;;4999882;28;20045;-66
2023/07/18 07:58:45;;;;;;;0.90;0.30;;;20.00;99.90;;;;;;5003628;28;20486;-66
2023/07/18 08:01:11;;;;;;;0.28;0.10;;;20.20;99.90;;;;;;4995567;28;20043;-66
2023/07/18 08:03:38;;;;;;;0.90;0.22;;;20.30;99.90;;;;;;5004622;28;20097;-66
2023/07/18 08:06:03;;;;;;;0.30;0.20;;;20.50;99.90;;;;;;5001721;28;20049;-66
2023/07/18 08:08:29;;;;;;;0.35;0.10;;;20.70;99.90;;;;;;5000637;28;20481;-66
2023/07/18 08:10:55;;;;;;;1.35;0.20;;;20.90;99.90;;;;;;4997077;28;20490;-66
2023/07/18 08:13:21;;;;;;;0.00;0.00;;;21.00;99.90;;;;;;5000040;28;20041;-66
2023/07/18 08:15:46;;;;;;;0.52;0.20;;;21.20;99.90;;;;;;5002948;28;20374;-67
2023/07/18 08:18:12;;;;;;;0.20;0.10;;;21.40;99.90;;;;;;5000561;28;20033;-66
2023/07/18 08:20:38;;;;;;;0.88;0.08;;;21.60;99.90;;;;;;5005127;28;20053;-66
2023/07/18 08:23:03;;;;;;;0.47;0.10;;;21.80;99.90;;;;;;4998156;28;20138;-66
2023/07/18 08:25:29;;;;;;;1.00;0.10;;;22.00;99.90;;;;;;5000951;28;20073;-67
2023/07/18 08:27:55;;;;;;;1.65;0.28;;;22.00;99.90;;;;;;5003040;28;20113;-67
2023/07/18 08:30:21;;;;;;;0.65;0.20;;;22.10;99.90;;;;;;5000337;28;20129;-67
2023/07/18 08:32:46;;;;;;;1.25;0.20;;;22.20;99.90;;;;;;5002782;28;20046;-67
2023/07/18 08:35:12;;;;;;;0.25;0.05;;;22.40;99.90;;;;;;5001453;28;20046;-67
2023/07/18 08:37:39;;;;;;;3.15;0.45;;;22.50;99.90;;;;;;4998741;28;20513;-67
2023/07/18 08:40:07;;;;;;;0.77;0.25;;;22.50;99.90;;;;;;5000467;28;20081;-67
2023/07/18 08:42:33;;;;;;;0.10;0.10;;;22.60;99.90;;;;;;5002630;28;20609;-67
2023/07/18 08:45:00;;;;;;;0.88;0.10;;;22.60;99.90;;;;;;5004355;28;20037;-67
2023/07/18 08:47:27;;;;;;;0.22;0.10;;;22.70;99.90;;;;;;5004431;28;20070;-66
2023/07/18 08:49:53;;;;;;;0.40;0.30;;;22.90;99.90;;;;;;4996972;28;20042;-67
2023/07/18 08:52:19;;;;;;;0.10;0.00;;;23.10;99.90;;;;;;5001363;28;20136;-68
2023/07/18 08:54:45;;;;;;;0.00;0.00;;;23.30;99.90;;;;;;5004575;28;20175;-67
2023/07/18 08:57:11;;;;;;;1.45;0.20;;;23.50;99.90;;;;;;4997502;28;20446;-67
2023/07/18 08:59:39;;;;;;;1.02;0.10;;;23.70;99.90;;;;;;4997312;28;20510;-68
2023/07/18 09:02:05;;;;;;;0.45;0.10;;;23.80;99.90;;;;;;5008030;28;20065;-67
2023/07/18 09:04:31;;;;;;;0.25;0.10;;;24.10;99.90;;;;;;5005079;28;20486;-68
2023/07/18 09:07:02;;;;;;;1.00;0.13;;;24.10;99.90;;;;;;5022423;28;20041;-68
2023/07/18 09:09:28;;;;;;;0.43;0.05;;;23.90;99.90;;;;;;5004403;28;20636;-68
2023/07/18 09:12:02;;;;;;;0.70;0.10;;;23.60;99.90;;;;;;5003240;28;20163;-65
2023/07/18 09:14:30;;;;;;;0.10;0.00;;;23.80;99.90;;;;;;5005019;28;20111;-67
2023/07/18 09:16:59;;;;;;;0.10;0.10;;;24.20;99.90;;;;;;5001447;28;20053;-67
2023/07/18 09:19:45;;;;;;;2.33;0.40;;;24.30;99.90;;;;;;4998852;28;20042;-66
2023/07/18 09:22:12;;;;;;;0.30;0.13;;;24.40;99.90;;;;;;5002529;28;20196;-66
2023/07/18 09:24:39;;;;;;;0.60;0.20;;;24.30;99.90;;;;;;5006512;28;20064;-67
2023/07/18 09:27:13;;;;;;;0.00;0.00;;;24.30;99.90;;;;;;5007006;28;20038;-67
2023/07/18 09:29:44;;;;;;;0.75;0.05;;;24.40;99.90;;;;;;5000443;28;20068;-66
2023/07/18 09:32:18;;;;;;;0.70;0.20;;;24.40;99.90;;;;;;5005532;28;20066;-66
2023/07/18 09:34:55;;;;;;;1.45;0.10;;;24.20;99.90;;;;;;5011206;28;20045;-66
2023/07/18 09:37:21;;;;;;;0.35;0.20;;;24.10;99.90;;;;;;5003689;28;20038;-66
2023/07/18 09:39:47;;;;;;;0.10;0.00;;;24.20;99.90;;;;;;5004275;28;20061;-65
2023/07/18 09:42:16;;;;;;;0.25;0.05;;;24.40;99.90;;;;;;5001469;28;20100;-66
2023/07/18 09:44:43;;;;;;;0.80;0.10;;;24.30;99.90;;;;;;5002450;28;20045;-66
2023/07/18 09:47:09;;;;;;;0.38;0.10;;;24.30;99.90;;;;;;5012752;28;20042;-66
2023/07/18 09:49:36;;;;;;;0.90;0.10;;;24.30;99.90;;;;;;5001945;28;20049;-67
2023/07/18 09:52:04;;;;;;;0.55;0.28;;;24.30;99.90;;;;;;5005108;28;20482;-66
2023/07/18 09:54:33;;;;;;;1.90;0.20;;;24.30;99.90;;;;;;5003626;28;20052;-66
2023/07/18 09:57:12;;;;;;;0.00;0.00;;;24.40;99.90;;;;;;4997823;28;20476;-66
2023/07/18 09:59:39;;;;;;;0.17;0.00;;;24.50;99.90;;;;;;5005746;28;20041;-67
2023/07/18 10:02:10;;;;;;;0.10;0.10;;;24.60;99.90;;;;;;5008640;28;20251;-66
2023/07/18 10:04:36;;;;;;;1.35;0.00;;;24.70;99.90;;;;;;4999556;28;20069;-67
2023/07/18 10:07:03;;;;;;;0.00;0.00;;;24.70;99.90;;;;;;4997444;28;20157;-67
2023/07/18 10:09:31;;;;;;;0.10;0.10;;;24.70;99.90;;;;;;5005241;28;20452;-66
2023/07/18 10:12:03;;;;;;;0.10;0.00;;;24.80;99.90;;;;;;5001919;28;20037;-66
2023/07/18 10:14:46;;;;;;;0.40;0.08;;;24.90;99.90;;;;;;4996067;28;20415;-67
2023/07/18 10:17:49;;;;;;;0.43;0.00;;;25.00;99.90;;;;;;5002071;28;20099;-67
2023/07/18 10:20:32;;;;;;;0.15;0.00;;;24.90;98.20;;;;;;4992879;28;20474;-66
2023/07/18 10:23:00;;;;;;;0.00;0.00;;;24.90;99.90;;;;;;5006783;28;20050;-66
2023/07/18 10:25:29;;;;;;;0.15;0.00;;;24.90;99.90;;;;;;5004365;28;20375;-67
2023/07/18 10:27:57;;;;;;;0.00;0.00;;;25.00;99.90;;;;;;5005005;28;20081;-66
2023/07/18 10:30:23;;;;;;;0.25;0.00;;;25.30;99.90;;;;;;5004210;28;20038;-66
2023/07/18 10:32:55;;;;;;;0.00;0.00;;;25.40;99.90;;;;;;5003527;28;20046;-66
2023/07/18 10:35:24;;;;;;;0.00;0.00;;;25.50;99.90;;;;;;5002136;28;20046;-66
2023/07/18 10:37:53;;;;;;;0.10;0.00;;;25.60;99.90;;;;;;5004662;28;20050;-65
2023/07/18 10:40:37;;;;;;;0.35;0.00;;;25.70;98.00;;;;;;5003711;28;20109;-66
2023/07/18 10:43:18;;;;;;;0.00;0.00;;;25.90;99.90;;;;;;4999114;28;20031;-66
2023/07/18 10:45:44;;;;;;;0.10;0.00;;;26.10;99.90;;;;;;5006038;28;20115;-66
2023/07/18 10:48:19;;;;;;;0.10;0.00;;;26.20;99.90;;;;;;4999407;28;20042;-67
2023/07/18 10:50:47;;;;;;;0.43;0.10;;;26.40;99.90;;;;;;5005282;28;20104;-67
2023/07/18 10:53:19;;;;;;;0.25;0.00;;;26.80;99.60;;;;;;4995975;28;20104;-67
2023/07/18 10:55:45;;;;;;;0.05;0.00;;;27.00;99.90;;;;;;5006398;28;20084;-67
2023/07/18 10:58:19;;;;;;;0.52;0.00;;;27.30;99.30;;;;;;5004880;28;20037;-65
2023/07/18 11:00:45;;;;;;;;;;;27.40;99.90;;;;;;5006593;28;20068;-65
2023/07/18 11:03:21;;;;;;;2.05;0.20;;;27.50;97.70;;;;;;5003861;28;20354;-67
2023/07/18 11:05:51;;;;;;;1.95;0.00;;;27.60;93.70;;;;;;5003186;28;20180;-67
2023/07/18 11:08:25;;;;;;;1.50;0.00;;;27.70;99.90;;;;;;5003664;28;20141;-67
2023/07/18 11:11:03;;;;;;;0.03;0.00;;;27.60;97.10;;;;;;4997467;28;20402;-67
2023/07/18 11:13:33;;;;;;;0.00;0.00;;;27.60;99.70;;;;;;4998866;28;20050;-67
2023/07/18 11:16:08;;;;;;;0.00;0.00;;;27.60;96.10;;;;;;4991110;28;20046;-67
2023/07/18 11:18:53;;;;;;;0.00;0.00;;;27.50;88.60;;;;;;5007802;28;20050;-67
2023/07/18 11:21:20;;;;;;;0.20;0.00;;;27.30;93.60;;;;;;5005320;28;20049;-67
2023/07/18 11:23:47;;;;;;;0.00;0.00;;;27.00;92.60;;;;;;5007941;28;20037;-66
2023/07/18 11:26:18;;;;;;;1.85;0.00;;;26.80;90.80;;;;;;5003106;28;20494;-67
2023/07/18 11:28:51;;;;;;;0.10;0.00;;;26.60;90.40;;;;;;5000794;28;20081;-66
2023/07/18 11:31:39;;;;;;;0.22;0.00;;;26.60;94.50;;;;;;4997882;28;20252;-67
2023/07/18 11:34:05;;;;;;;0.28;0.00;;;26.90;91.70;;;;;;5000858;28;20052;-67
2023/07/18 11:36:36;;;;;;;0.00;0.00;;;27.40;95.80;;;;;;5002288;28;20490;-66
2023/07/18 11:39:06;;;;;;;1.25;0.10;;;27.90;94.60;;;;;;5000484;28;20113;-67
2023/07/18 11:41:39;;;;;;;0.38;0.00;;;28.30;93.60;;;;;;5000955;28;20499;-67
2023/07/18 11:44:09;;;;;;;0.10;0.10;;;28.30;89.70;;;;;;5005186;28;20099;-67
2023/07/18 11:46:36;;;;;;;0.65;0.10;;;28.30;89.60;;;;;;5002209;28;20447;-66
2023/07/18 11:49:03;;;;;;;0.55;0.00;;;28.30;76.80;;;;;;4996301;28;20046;-66
2023/07/18 11:51:30;;;;;;;0.08;0.00;;;28.40;89.50;;;;;;4995456;28;20061;-66
2023/07/18 11:53:56;;;;;;;0.10;0.00;;;28.30;88.50;;;;;;5000235;28;20088;-66
2023/07/18 11:56:21;;;;;;;0.25;0.00;;;28.40;84.50;;;;;;5001025;28;20074;-66
2023/07/18 11:58:47;;;;;;;1.15;0.60;;;28.60;89.10;;;;;;4993107;28;20439;-67
2023/07/18 12:01:13;;;;;;;0.00;0.00;;;28.80;86.70;;;;;;4992260;28;20042;-66
2023/07/18 12:03:39;;;;;;;0.25;0.10;;;28.90;76.50;;;;;;5001800;28;20112;-67
2023/07/18 12:06:05;;;;;;;0.00;0.00;;;29.10;80.70;;;;;;5004070;28;20040;-68
2023/07/18 12:08:31;;;;;;;0.20;0.00;;;29.10;74.40;;;;;;4998335;28;20518;-66
2023/07/18 12:10:57;;;;;;;0.10;0.00;;;28.70;58.20;;;;;;4995847;28;20128;-67
2023/07/18 12:13:23;;;;;;;0.00;0.00;;;28.40;68.70;;;;;;5005246;28;20125;-66
2023/07/18 12:15:49;;;;;;;0.25;0.00;;;28.30;69.30;;;;;;5003236;28;20465;-66
2023/07/18 12:18:15;;;;;;;0.00;0.00;;;28.10;73.00;;;;;;4999438;28;20092;-66
2023/07/18 12:20:40;;;;;;;0.00;0.00;;;27.70;67.40;;;;;;4999941;28;20076;-67
2023/07/18 12:23:06;;;;;;;0.95;0.10;;;27.20;66.90;;;;;;5002663;28;20069;-67
2023/07/18 12:25:32;;;;;;;0.00;0.00;;;26.90;73.80;;;;;;5003430;28;20046;-67
2023/07/18 12:28:00;;;;;;;0.05;0.00;;;26.50;68.50;;;;;;4997588;28;20542;-67
2023/07/18 12:30:27;;;;;;;0.08;0.00;;;26.20;71.40;;;;;;4996836;28;20104;-65
2023/07/18 12:32:54;;;;;;;0.20;0.00;;;25.90;76.00;;;;;;5001383;28;20041;-65
2023/07/18 12:35:20;;;;;;;0.47;0.00;;;25.80;77.10;;;;;;4998960;28;20355;-66
2023/07/18 12:37:46;;;;;;;1.33;0.03;;;26.00;80.00;;;;;;4997720;28;20137;-66
2023/07/18 12:40:12;;;;;;;0.03;0.00;;;26.00;78.10;;;;;;5003835;28;20034;-65
2023/07/18 12:42:38;;;;;;;0.22;0.00;;;25.90;79.10;;;;;;5000696;28;20093;-65
2023/07/18 12:45:04;;;;;;;0.10;0.00;;;25.80;80.90;;;;;;5003180;28;20840;-65
2023/07/18 12:47:30;;;;;;;0.40;0.08;;;25.60;80.70;;;;;;4997669;28;20464;-65
2023/07/18 12:49:56;;;;;;;0.25;0.00;;;25.40;79.60;;;;;;5003462;28;20046;-65